EDDB/SXF METAR and TAF weather

Enter ICAO airport designator
Station Type Date Time Source
EDDB METAR 2019/08/19 11:50 UTC NOAA

EDDB 191150Z 26013KT 210V300 9999 SCT049 24/10 Q1015 TEMPO 26015G30KT


Station Type Date Time Source
EDDB Decoded METAR 2019/08/19 11:50 UTC NOAA

Station name not available
Aug 19, 2019 - 07:50 AM EDT / 2019.08.19 1150 UTC
Wind: from the W (260 degrees) at 15 MPH (13 KT) (direction variable):0
Visibility: greater than 7 mile(s):0
Sky conditions: partly cloudy
Temperature: 75 F (24 C)
Dew Point: 50 F (10 C)
Relative Humidity: 41%
Pressure (altimeter): 29.97 in. Hg (1015 hPa)
ob: EDDB 191150Z 26013KT 210V300 9999 SCT049 24/10 Q1015 TEMPO 26015G30KT
cycle: 12

Station Type Date Time Source
EDDB TAF 2019/08/19 12:27 UTC NOAA

TAF TAF EDDB 191100Z 1912/2012 26012KT 9999 SCT045 PROB30
TEMPO 1912/1916 26015G25KT
BECMG 1918/1920 24004KT
BECMG 2008/2010 30005KT

Example: see airport list